Douglass, TX (75943)

4:15 AM CDT on March 29, 2017 (GMT -0500)
Buckshot | | Change Station
Active Advisory: Lake Wind Advisory

Elev 336 ft 31.64 °N, 95.00 °W | Updated 3 seconds ago

Overcast
Overcast
71.6 °F
Feels Like 71.6 °F
N
0.7
Wind Variable Wind from SW
Gusts 7.4 mph

Today
High -- | Low -- °F
--% Chance of Precip.
Yesterday
High -- | Low -- °F
Precip. -- in
Pressure 29.73 in
Visibility -9999.0 miles
Clouds Few 2600 ft
Scattered Clouds 3200 ft
Overcast 4600 ft
Dew Point 68 °F
Humidity 87%
Rainfall 0.00 in
Snow Depth Not available.
7:11 AM 7:37 PM
New Moon, 2% visible
METAR KOCH 290855Z 17008KT FEW026 SCT032 OVC046 22/18 A2973 RMK AO1 57003
Pressure 29.73 in
Visibility -9999.0 miles
Clouds Few 2600 ft
Scattered Clouds 3200 ft
Overcast 4600 ft
Dew Point 68 °F
Humidity 87%
Rainfall 0.00 in
Snow Depth Not available.
7:11 AM 7:37 PM
New Moon, 2% visible
METAR KOCH 290855Z 17008KT FEW026 SCT032 OVC046 22/18 A2973 RMK AO1 57003

Get Your Daily Forecast Email!

Thanks for signing up!

Be on the lookout for a verification email in your inbox.

You'll start receiving severe weather alerts in your inbox..

×

10-Day Weather Forecast

Almanac

Astronomy

Mar. 29, 2017 Rise Set
Actual Time
Civil Twilight
Nautical Twilight
Astronomical Twilight
Moon
Length of Visible Light
Length of Day
Tomorrow will be .
, % of the Moon is Illuminated

Today's Extremes

State Highs State Lows

Community

WunderPhotos

Upload Photos

1,962,540 photos uploaded!

WunderBlog® & News

Nearby

Air Quality

  Air Quality AQ Index Pollutant
Not available.

Snow Depth

Station Depth Elevation

Earthquake Activity

City Distance Mag. Time & Date
Minimum magnitude displayed is 2.5.

Earthquake Activity

City Distance Mag. Time & Date
Minimum magnitude displayed is 2.5.

Coastal Water Temperatures

Place Temperature

Stations

Nearby Weather Stations

Station Location Temp. Windchill Dew Point Humidity Wind Precip. Elev Updated Type
                   

Watches & Warnings

Lake Wind Advisory
Issued: 3:49 PM CDT Mar. 28, 2017 – National Weather Service

... Lake Wind Advisory will be in effect from 10 am to 7 PM CDT
Wednesday... with winds increasing from mid to late morning and
continuing into the late afternoon before dropping off...

The National Weather Service in Shreveport has issued a lake Wind
Advisory, which will be in effect from 10 am to 7 PM CDT
Wednesday.

* Event... strong and gusty winds of 15 to 20 mph with higher gusts
to 30 mph.

* Timing... from around 10 am to 7 PM CDT Wednesday.

* Impact... winds will likely produce a rough chop on area lakes
and open waterways, which may be hazardous for boaters...
especially for small craft.

Precautionary/preparedness actions...

A lake Wind Advisory indicates that winds will cause rough chop
on area lakes. Small boats will be especially prone to capsizing.



06